createdAt,value
2023-03-29T00:01:35.210Z,3.17
2023-03-29T00:04:06.292Z,3.15
2023-03-29T00:06:33.610Z,3.19
2023-03-29T00:09:01.801Z,3.13
2023-03-29T00:11:28.362Z,3.20
2023-03-29T00:13:54.911Z,3.24
2023-03-29T00:16:21.425Z,3.31
2023-03-29T00:18:48.062Z,3.31
2023-03-29T00:21:14.519Z,3.15
2023-03-29T00:23:41.086Z,3.23
2023-03-29T00:26:08.378Z,3.33
2023-03-29T00:28:35.581Z,3.26
2023-03-29T00:31:14.106Z,3.27
2023-03-29T00:33:41.428Z,3.30
2023-03-29T00:36:09.081Z,3.25
2023-03-29T00:38:36.050Z,3.30
2023-03-29T00:41:04.300Z,3.29
2023-03-29T00:43:31.034Z,3.16
2023-03-29T00:45:57.485Z,3.07
2023-03-29T00:48:27.921Z,2.92
2023-03-29T00:51:03.476Z,2.86
2023-03-29T00:53:34.475Z,2.97
2023-03-29T00:56:06.313Z,3.12
2023-03-29T00:58:57.180Z,3.23
2023-03-29T01:01:35.509Z,3.24
2023-03-29T01:04:18.158Z,3.36
2023-03-29T01:07:01.270Z,3.35
2023-03-29T01:09:31.092Z,3.36
2023-03-29T01:12:01.636Z,3.29
2023-03-29T01:14:43.753Z,3.21
2023-03-29T01:17:10.917Z,3.34
2023-03-29T01:19:44.382Z,3.33
2023-03-29T01:22:51.339Z,3.42
2023-03-29T01:25:45.450Z,3.39
2023-03-29T01:28:17.544Z,3.31
2023-03-29T01:30:49.890Z,3.36
2023-03-29T01:33:24.572Z,3.40
2023-03-29T01:36:09.608Z,3.34
2023-03-29T01:38:43.152Z,3.36
2023-03-29T01:41:10.978Z,3.45
2023-03-29T01:43:40.561Z,3.44
2023-03-29T01:46:27.754Z,3.37
2023-03-29T01:49:11.143Z,3.37
2023-03-29T01:51:42.381Z,3.41
2023-03-29T01:54:44.487Z,3.42
2023-03-29T01:57:12.349Z,3.42
2023-03-29T01:59:42.380Z,3.42
2023-03-29T02:02:14.663Z,3.51
2023-03-29T02:04:48.021Z,3.54
2023-03-29T02:07:17.066Z,3.55
2023-03-29T02:09:45.198Z,3.56
2023-03-29T02:12:13.621Z,3.55
2023-03-29T02:14:40.453Z,3.53
2023-03-29T02:17:23.542Z,3.49
2023-03-29T02:19:59.339Z,3.51
2023-03-29T02:22:36.630Z,3.48
2023-03-29T02:25:08.331Z,3.51
2023-03-29T02:27:37.733Z,3.52
2023-03-29T02:30:06.652Z,3.46
2023-03-29T02:32:49.356Z,3.35
2023-03-29T02:35:34.468Z,3.41
2023-03-29T02:38:04.718Z,3.34
2023-03-29T02:40:33.233Z,3.47
2023-03-29T02:43:02.063Z,3.41
2023-03-29T02:45:30.039Z,3.40
2023-03-29T02:48:00.468Z,3.22
2023-03-29T02:50:37.637Z,3.33
2023-03-29T02:53:10.251Z,3.34
2023-03-29T02:55:38.945Z,3.43
2023-03-29T02:58:08.440Z,3.42
2023-03-29T03:00:42.091Z,3.39
2023-03-29T03:03:10.323Z,3.47
2023-03-29T03:05:37.303Z,3.57
2023-03-29T03:08:04.969Z,3.60
2023-03-29T03:10:33.218Z,3.54
2023-03-29T03:12:59.662Z,3.57
2023-03-29T03:15:26.394Z,3.61
2023-03-29T03:17:54.429Z,3.66
2023-03-29T03:20:23.875Z,3.56
2023-03-29T03:22:50.487Z,3.57
2023-03-29T03:25:20.694Z,3.60
2023-03-29T03:27:49.089Z,3.66
2023-03-29T03:30:16.630Z,3.69
2023-03-29T03:32:49.363Z,3.75
2023-03-29T03:35:16.264Z,3.81
2023-03-29T03:37:42.955Z,3.78
2023-03-29T03:40:11.674Z,3.74
2023-03-29T03:42:39.306Z,3.75
2023-03-29T03:45:06.395Z,3.79
2023-03-29T03:47:32.838Z,3.80
2023-03-29T03:49:59.515Z,3.80
2023-03-29T03:52:26.957Z,3.86
2023-03-29T03:54:53.428Z,3.97
2023-03-29T03:57:19.951Z,4.00
2023-03-29T03:59:46.562Z,3.99
2023-03-29T04:02:13.065Z,4.07
2023-03-29T04:04:40.537Z,4.03
2023-03-29T04:07:07.530Z,4.02
2023-03-29T04:09:34.411Z,3.98
2023-03-29T04:12:01.621Z,3.93
2023-03-29T04:14:28.459Z,3.95
2023-03-29T04:16:55.500Z,3.96
2023-03-29T04:19:22.070Z,4.01
2023-03-29T04:21:49.603Z,4.00
2023-03-29T04:24:17.231Z,4.03
2023-03-29T04:26:44.303Z,4.02
2023-03-29T04:29:10.915Z,4.03
2023-03-29T04:31:37.533Z,4.04
2023-03-29T04:34:04.483Z,4.11
2023-03-29T04:36:30.966Z,4.16
2023-03-29T04:38:58.581Z,4.15
2023-03-29T04:41:25.125Z,4.13
2023-03-29T04:43:52.029Z,4.19
2023-03-29T04:46:18.560Z,4.20
2023-03-29T04:48:45.098Z,4.21
2023-03-29T04:51:11.684Z,4.19
2023-03-29T04:53:38.209Z,4.14
2023-03-29T04:56:05.047Z,4.06
2023-03-29T04:58:32.426Z,4.04
2023-03-29T05:00:59.471Z,4.02
2023-03-29T05:03:27.021Z,4.11
2023-03-29T05:05:53.684Z,4.15
2023-03-29T05:08:20.133Z,4.17
2023-03-29T05:10:47.597Z,4.18
2023-03-29T05:13:14.084Z,4.15
2023-03-29T05:15:41.784Z,4.15
2023-03-29T05:18:08.297Z,4.15
2023-03-29T05:20:34.903Z,4.11
2023-03-29T05:23:01.441Z,4.06
2023-03-29T05:25:28.180Z,4.11
2023-03-29T05:27:55.303Z,4.17
2023-03-29T05:30:22.464Z,4.17
2023-03-29T05:32:49.202Z,4.21
2023-03-29T05:35:16.072Z,4.21
2023-03-29T05:37:42.542Z,4.16
2023-03-29T05:40:09.898Z,4.18
2023-03-29T05:42:38.011Z,4.23
2023-03-29T05:45:05.079Z,4.26
2023-03-29T05:47:31.731Z,4.26
2023-03-29T05:49:58.265Z,4.33
2023-03-29T05:52:24.815Z,4.26
2023-03-29T05:54:51.542Z,4.27
2023-03-29T05:57:18.051Z,4.26
2023-03-29T05:59:44.888Z,4.22
2023-03-29T06:02:12.317Z,4.27
2023-03-29T06:04:39.992Z,4.37
2023-03-29T06:07:12.827Z,4.42
2023-03-29T06:09:46.123Z,4.49
2023-03-29T06:12:14.071Z,4.55
2023-03-29T06:14:40.723Z,4.57
2023-03-29T06:17:07.279Z,4.62
2023-03-29T06:19:33.992Z,4.67
2023-03-29T06:22:00.651Z,4.68
2023-03-29T06:24:27.167Z,4.75
2023-03-29T06:26:53.708Z,4.71
2023-03-29T06:29:20.238Z,4.70
2023-03-29T06:31:46.788Z,4.72
2023-03-29T06:34:13.781Z,4.77
2023-03-29T06:36:40.218Z,4.85
2023-03-29T06:39:06.646Z,4.86
2023-03-29T06:41:33.145Z,4.81
2023-03-29T06:43:59.679Z,4.90
2023-03-29T06:46:26.219Z,4.98
2023-03-29T06:48:53.291Z,5.10
2023-03-29T06:51:21.912Z,5.08
2023-03-29T06:53:49.732Z,5.20
2023-03-29T06:56:17.603Z,5.26
2023-03-29T06:58:44.971Z,5.28
2023-03-29T07:01:11.503Z,5.29
2023-03-29T07:03:39.365Z,5.36
2023-03-29T07:06:10.083Z,5.30
2023-03-29T07:08:47.369Z,5.37
2023-03-29T07:11:15.066Z,5.35
2023-03-29T07:13:42.595Z,5.50
2023-03-29T07:16:13.823Z,5.56
2023-03-29T07:18:41.752Z,5.57
2023-03-29T07:21:09.415Z,5.63
2023-03-29T07:23:36.096Z,5.80
2023-03-29T07:26:02.676Z,5.95
2023-03-29T07:28:29.715Z,6.00
2023-03-29T07:31:07.202Z,6.07
2023-03-29T07:33:34.467Z,6.14
2023-03-29T07:36:01.955Z,6.18
2023-03-29T07:38:28.621Z,6.27
2023-03-29T07:40:55.126Z,6.23
2023-03-29T07:43:21.975Z,6.24
2023-03-29T07:45:48.662Z,6.30
2023-03-29T07:48:15.810Z,6.38
2023-03-29T07:50:43.212Z,6.33
2023-03-29T07:53:10.251Z,6.43
2023-03-29T07:55:37.092Z,6.49
2023-03-29T07:58:04.310Z,6.44
2023-03-29T08:00:30.819Z,6.48
2023-03-29T08:02:57.573Z,6.49
2023-03-29T08:05:37.907Z,6.48
2023-03-29T08:08:07.388Z,6.52
2023-03-29T08:10:34.273Z,6.56
2023-03-29T08:13:01.020Z,6.57
2023-03-29T08:15:28.029Z,6.65
2023-03-29T08:17:54.692Z,6.65
2023-03-29T08:20:21.303Z,6.72
2023-03-29T08:22:48.809Z,6.75
2023-03-29T08:25:15.285Z,6.76
2023-03-29T08:27:42.430Z,6.83
2023-03-29T08:30:09.568Z,6.89
2023-03-29T08:32:37.497Z,6.84
2023-03-29T08:35:06.647Z,6.86
2023-03-29T08:37:33.285Z,6.91
2023-03-29T08:40:01.042Z,6.97
2023-03-29T08:42:36.784Z,7.01
2023-03-29T08:45:31.526Z,7.05
2023-03-29T08:48:22.876Z,7.07
2023-03-29T08:50:53.859Z,7.17
2023-03-29T08:53:29.106Z,7.25
2023-03-29T08:55:56.986Z,7.32
2023-03-29T08:58:29.103Z,7.37
2023-03-29T09:00:58.641Z,7.47
2023-03-29T09:03:38.097Z,7.60
2023-03-29T09:06:08.708Z,7.64
2023-03-29T09:08:39.033Z,7.74
2023-03-29T09:11:23.954Z,7.87
2023-03-29T09:14:15.733Z,7.99
2023-03-29T09:16:58.413Z,7.93
2023-03-29T09:19:42.635Z,7.98
2023-03-29T09:22:28.018Z,8.00
2023-03-29T09:24:54.434Z,8.10
2023-03-29T09:27:26.720Z,8.02
2023-03-29T09:30:06.130Z,8.04
2023-03-29T09:32:39.457Z,8.20
2023-03-29T09:35:37.142Z,8.39
2023-03-29T09:38:07.679Z,8.60
2023-03-29T09:40:44.499Z,8.71
2023-03-29T09:43:18.352Z,8.74
2023-03-29T09:45:53.061Z,8.68
2023-03-29T09:48:20.767Z,8.69
2023-03-29T09:50:51.359Z,8.58
2023-03-29T09:53:19.534Z,8.62
2023-03-29T09:55:50.324Z,8.88
2023-03-29T09:58:22.515Z,9.11
2023-03-29T10:00:50.032Z,9.15
2023-03-29T10:03:35.031Z,9.15
2023-03-29T10:06:03.619Z,9.13
2023-03-29T10:08:36.778Z,9.08
2023-03-29T10:11:14.657Z,9.05
2023-03-29T10:13:49.207Z,9.09
2023-03-29T10:16:25.719Z,9.02
2023-03-29T10:18:54.569Z,9.06
2023-03-29T10:21:22.039Z,9.09
2023-03-29T10:23:50.228Z,9.10
2023-03-29T10:26:32.605Z,9.08
2023-03-29T10:29:01.765Z,9.07
2023-03-29T10:31:32.901Z,9.16
2023-03-29T10:34:06.400Z,9.26
2023-03-29T10:36:33.263Z,9.39
2023-03-29T10:39:05.114Z,9.49
2023-03-29T10:41:34.627Z,9.67
2023-03-29T10:44:02.053Z,9.80
2023-03-29T10:46:30.260Z,9.94
2023-03-29T10:49:02.569Z,10.21
2023-03-29T10:51:32.498Z,10.44
2023-03-29T10:53:59.545Z,11.06
2023-03-29T10:56:39.077Z,11.61
2023-03-29T10:59:31.648Z,11.92
2023-03-29T11:02:42.189Z,11.77
2023-03-29T11:05:24.641Z,12.52
2023-03-29T11:08:14.897Z,12.38
2023-03-29T11:10:55.888Z,12.42
2023-03-29T11:13:31.489Z,12.14
2023-03-29T11:16:13.358Z,11.71
2023-03-29T11:19:03.679Z,11.40
2023-03-29T11:21:51.576Z,11.38
2023-03-29T11:24:33.931Z,11.49
2023-03-29T11:27:16.102Z,11.52
2023-03-29T11:29:58.615Z,11.71
2023-03-29T11:32:41.278Z,11.66
2023-03-29T11:35:29.981Z,11.72
2023-03-29T11:38:10.163Z,11.59
2023-03-29T11:41:02.766Z,11.51
2023-03-29T11:43:35.463Z,11.35
2023-03-29T11:46:23.587Z,11.25
2023-03-29T11:48:52.827Z,11.18
2023-03-29T11:51:37.912Z,11.28
2023-03-29T11:54:23.947Z,11.40
2023-03-29T11:56:59.541Z,11.44
2023-03-29T12:00:12.279Z,11.42
2023-03-29T12:02:50.868Z,11.52
2023-03-29T12:05:27.344Z,11.56
2023-03-29T12:08:02.017Z,11.66
2023-03-29T12:10:54.445Z,11.81
2023-03-29T12:13:23.886Z,11.79
2023-03-29T12:16:00.266Z,11.73
2023-03-29T12:18:41.060Z,12.01
2023-03-29T12:21:13.255Z,12.16
2023-03-29T12:23:41.976Z,12.20
2023-03-29T12:26:34.821Z,12.26
2023-03-29T12:29:25.543Z,12.30
2023-03-29T12:32:28.442Z,12.31
2023-03-29T12:35:26.984Z,12.15
2023-03-29T12:38:16.232Z,12.14
2023-03-29T12:40:46.396Z,12.11
2023-03-29T12:43:26.180Z,12.19
2023-03-29T12:46:14.508Z,12.40
2023-03-29T12:48:42.613Z,12.50
2023-03-29T12:51:16.095Z,12.62
2023-03-29T12:54:08.517Z,12.72
2023-03-29T12:56:41.504Z,12.84
2023-03-29T12:59:11.608Z,12.87
2023-03-29T13:01:41.487Z,12.94
2023-03-29T13:04:21.616Z,12.89
2023-03-29T13:07:05.708Z,12.90
2023-03-29T13:09:55.032Z,12.87
2023-03-29T13:12:40.504Z,12.93
2023-03-29T13:15:18.958Z,13.02
2023-03-29T13:18:03.605Z,13.07
2023-03-29T13:20:42.154Z,13.13
2023-03-29T13:23:37.781Z,13.16
2023-03-29T13:26:42.748Z,13.32
2023-03-29T13:29:17.136Z,13.44
2023-03-29T13:31:51.802Z,13.58
2023-03-29T13:34:37.686Z,13.78
2023-03-29T13:37:33.871Z,13.72
2023-03-29T13:40:00.382Z,13.83
2023-03-29T13:42:32.955Z,13.71
2023-03-29T13:45:13.193Z,13.90
2023-03-29T13:47:58.818Z,14.17
2023-03-29T13:50:57.146Z,14.23
2023-03-29T13:53:45.648Z,14.26
2023-03-29T13:56:19.624Z,14.37
2023-03-29T13:58:53.505Z,14.47
2023-03-29T14:01:36.366Z,14.55
2023-03-29T14:04:05.987Z,14.63
2023-03-29T14:06:37.150Z,14.81
2023-03-29T14:09:07.182Z,15.03
2023-03-29T14:11:34.692Z,14.95
2023-03-29T14:14:05.485Z,14.88
2023-03-29T14:16:36.812Z,14.68
2023-03-29T14:19:07.590Z,14.41
2023-03-29T14:21:34.183Z,14.47
2023-03-29T14:24:02.282Z,14.54
2023-03-29T14:26:34.502Z,14.58
2023-03-29T14:29:02.458Z,14.51
2023-03-29T14:31:37.246Z,14.47
2023-03-29T14:34:06.663Z,14.49
2023-03-29T14:36:33.802Z,14.31
2023-03-29T14:39:05.466Z,14.19
2023-03-29T14:41:34.335Z,14.22
2023-03-29T14:44:01.495Z,14.24
2023-03-29T14:46:28.213Z,14.43
2023-03-29T14:48:56.346Z,14.46
2023-03-29T14:51:28.553Z,14.36
2023-03-29T14:54:05.546Z,14.35
2023-03-29T14:56:33.194Z,14.10
2023-03-29T14:59:03.560Z,13.96
2023-03-29T15:01:30.193Z,13.89
2023-03-29T15:04:01.969Z,13.86
2023-03-29T15:06:29.927Z,13.79
2023-03-29T15:09:06.211Z,13.66
2023-03-29T15:11:34.465Z,13.57
2023-03-29T15:14:05.889Z,13.49
2023-03-29T15:16:33.658Z,13.40
2023-03-29T15:19:01.836Z,13.23
2023-03-29T15:21:34.337Z,13.15
2023-03-29T15:24:04.113Z,13.09
2023-03-29T15:26:31.660Z,13.04
2023-03-29T15:29:23.605Z,13.05
2023-03-29T15:31:57.619Z,13.03
2023-03-29T15:34:27.000Z,12.98
2023-03-29T15:36:54.290Z,13.02
2023-03-29T15:39:20.916Z,13.01
2023-03-29T15:41:50.226Z,12.95
2023-03-29T15:44:18.037Z,12.86
2023-03-29T15:46:44.835Z,12.79
2023-03-29T15:49:12.357Z,12.72
2023-03-29T15:51:39.714Z,12.73
2023-03-29T15:54:06.458Z,12.64
2023-03-29T15:56:37.816Z,12.58
2023-03-29T15:59:04.751Z,12.50
2023-03-29T16:01:34.599Z,12.46
2023-03-29T16:04:03.113Z,12.47
2023-03-29T16:06:30.305Z,12.48
2023-03-29T16:08:57.516Z,12.52
2023-03-29T16:11:24.626Z,12.52
2023-03-29T16:13:51.453Z,12.47
2023-03-29T16:16:18.073Z,12.45
2023-03-29T16:18:44.631Z,12.44
2023-03-29T16:21:15.935Z,12.43
2023-03-29T16:23:42.924Z,12.44
2023-03-29T16:26:12.137Z,12.48
2023-03-29T16:28:38.721Z,12.50
2023-03-29T16:31:06.129Z,12.49
2023-03-29T16:33:32.875Z,12.39
2023-03-29T16:35:59.387Z,12.37
2023-03-29T16:38:25.884Z,12.30
2023-03-29T16:40:52.605Z,12.33
2023-03-29T16:43:19.555Z,12.28
2023-03-29T16:45:46.298Z,12.22
2023-03-29T16:48:18.005Z,12.12
2023-03-29T16:50:49.374Z,12.02
2023-03-29T16:53:16.814Z,12.00
2023-03-29T16:55:45.645Z,11.98
2023-03-29T16:58:12.110Z,11.93
2023-03-29T17:00:38.622Z,11.91
2023-03-29T17:03:05.301Z,11.88
2023-03-29T17:05:33.341Z,11.84
2023-03-29T17:07:59.944Z,11.79
2023-03-29T17:10:26.387Z,11.83
2023-03-29T17:12:52.859Z,11.85
2023-03-29T17:15:19.348Z,11.76
2023-03-29T17:17:46.011Z,11.71
2023-03-29T17:20:12.658Z,11.66
2023-03-29T17:22:40.335Z,11.63
2023-03-29T17:25:08.291Z,11.54
2023-03-29T17:27:37.288Z,11.47
2023-03-29T17:30:05.642Z,11.39
2023-03-29T17:32:32.372Z,11.32
2023-03-29T17:34:59.364Z,11.26
2023-03-29T17:37:27.792Z,11.20
2023-03-29T17:39:54.606Z,11.03
2023-03-29T17:42:21.191Z,10.96
2023-03-29T17:44:47.636Z,10.88
2023-03-29T17:47:14.167Z,10.83
2023-03-29T17:49:40.594Z,10.79
2023-03-29T17:52:07.080Z,10.68
2023-03-29T17:54:33.558Z,10.69
2023-03-29T17:57:00.152Z,10.58
2023-03-29T17:59:26.809Z,10.55
2023-03-29T18:01:53.479Z,10.46
2023-03-29T18:04:20.032Z,10.44
2023-03-29T18:06:46.494Z,10.41
2023-03-29T18:09:13.153Z,10.36
2023-03-29T18:11:39.640Z,10.34
2023-03-29T18:14:06.344Z,10.35
2023-03-29T18:16:33.098Z,10.34
2023-03-29T18:18:59.754Z,10.31
2023-03-29T18:21:27.413Z,10.26
2023-03-29T18:23:56.644Z,10.21
2023-03-29T18:26:23.517Z,10.14
2023-03-29T18:28:50.897Z,10.15
2023-03-29T18:31:19.069Z,10.09
2023-03-29T18:33:46.820Z,10.04
2023-03-29T18:36:13.993Z,10.00
2023-03-29T18:38:42.981Z,9.94
2023-03-29T18:41:12.059Z,9.98
2023-03-29T18:43:39.858Z,9.92
2023-03-29T18:46:07.827Z,9.96
2023-03-29T18:48:39.494Z,9.93
2023-03-29T18:51:07.442Z,9.90
2023-03-29T18:53:35.791Z,9.89
2023-03-29T18:56:03.443Z,9.86
2023-03-29T18:58:30.634Z,9.83
2023-03-29T19:01:02.074Z,9.78
2023-03-29T19:03:28.775Z,9.85
2023-03-29T19:05:55.566Z,9.85
2023-03-29T19:08:23.174Z,9.84
2023-03-29T19:10:50.102Z,9.85
2023-03-29T19:13:16.730Z,9.82
2023-03-29T19:15:43.272Z,9.79
2023-03-29T19:18:10.087Z,9.81
2023-03-29T19:20:36.962Z,9.77
2023-03-29T19:23:04.450Z,9.74
2023-03-29T19:25:31.445Z,9.69
2023-03-29T19:27:57.936Z,9.73
2023-03-29T19:30:25.760Z,9.70
2023-03-29T19:32:52.846Z,9.70
2023-03-29T19:35:19.582Z,9.73
2023-03-29T19:37:46.217Z,9.80
2023-03-29T19:40:13.597Z,9.82
2023-03-29T19:42:43.306Z,9.76
2023-03-29T19:45:10.236Z,9.75
2023-03-29T19:47:37.178Z,9.71
2023-03-29T19:50:04.892Z,9.70
2023-03-29T19:52:31.440Z,9.78
2023-03-29T19:55:00.825Z,9.75
2023-03-29T19:57:28.231Z,9.72
2023-03-29T19:59:54.771Z,9.76
2023-03-29T20:02:21.310Z,9.75
2023-03-29T20:04:47.728Z,9.70
2023-03-29T20:07:14.439Z,9.66
2023-03-29T20:09:44.634Z,9.65
2023-03-29T20:12:11.912Z,9.63
2023-03-29T20:14:40.158Z,9.63
2023-03-29T20:17:07.284Z,9.60
2023-03-29T20:19:36.497Z,9.59
2023-03-29T20:22:04.410Z,9.66
2023-03-29T20:24:32.500Z,9.66
2023-03-29T20:26:59.049Z,9.62
2023-03-29T20:29:25.512Z,9.59
2023-03-29T20:31:52.027Z,9.56
2023-03-29T20:34:18.581Z,9.49
2023-03-29T20:36:48.106Z,9.48
2023-03-29T20:39:17.674Z,9.45
2023-03-29T20:41:47.429Z,9.40
2023-03-29T20:44:16.902Z,9.37
2023-03-29T20:47:02.133Z,9.32
2023-03-29T20:49:37.324Z,9.37
2023-03-29T20:52:15.418Z,9.31
2023-03-29T20:54:43.873Z,9.27
2023-03-29T20:57:16.080Z,9.22
2023-03-29T20:59:43.873Z,9.23
2023-03-29T21:02:22.001Z,9.25
2023-03-29T21:04:50.676Z,9.23
2023-03-29T21:07:17.657Z,9.34
2023-03-29T21:09:44.340Z,9.25
2023-03-29T21:12:11.285Z,9.17
2023-03-29T21:14:37.859Z,9.17
2023-03-29T21:17:04.342Z,9.15
2023-03-29T21:19:31.120Z,9.20
2023-03-29T21:21:58.041Z,9.10
2023-03-29T21:24:24.542Z,9.12
2023-03-29T21:26:51.011Z,9.18
2023-03-29T21:29:17.516Z,9.15
2023-03-29T21:31:43.996Z,9.05
2023-03-29T21:34:10.509Z,9.08
2023-03-29T21:36:37.036Z,9.05
2023-03-29T21:39:04.112Z,8.88
2023-03-29T21:41:30.560Z,8.89
2023-03-29T21:43:56.989Z,8.94
2023-03-29T21:46:24.643Z,9.02
2023-03-29T21:48:51.642Z,9.08
2023-03-29T21:51:18.064Z,9.13
2023-03-29T21:53:44.533Z,9.13
2023-03-29T21:56:12.231Z,9.19
2023-03-29T21:58:38.876Z,9.19
2023-03-29T22:01:07.319Z,9.18
2023-03-29T22:03:33.968Z,9.19
2023-03-29T22:06:02.816Z,9.26
2023-03-29T22:08:30.781Z,9.37
2023-03-29T22:10:57.669Z,9.58
2023-03-29T22:13:26.930Z,9.69
2023-03-29T22:16:01.550Z,9.78
2023-03-29T22:18:30.236Z,9.77
2023-03-29T22:20:57.283Z,9.76
2023-03-29T22:23:24.852Z,9.76
2023-03-29T22:25:51.675Z,9.75
2023-03-29T22:28:18.254Z,9.67
2023-03-29T22:30:44.711Z,9.65
2023-03-29T22:33:11.126Z,9.60
2023-03-29T22:35:37.700Z,9.57
2023-03-29T22:38:04.273Z,9.54
2023-03-29T22:40:33.168Z,9.52
2023-03-29T22:42:59.926Z,9.46
2023-03-29T22:45:26.399Z,9.47
2023-03-29T22:47:53.112Z,9.43
2023-03-29T22:50:19.608Z,9.49
2023-03-29T22:52:46.089Z,9.50
2023-03-29T22:55:12.634Z,9.46
2023-03-29T22:57:39.105Z,9.45
2023-03-29T23:00:09.008Z,9.43
2023-03-29T23:02:36.523Z,9.47
2023-03-29T23:05:03.229Z,9.45
2023-03-29T23:07:29.841Z,9.47
2023-03-29T23:09:56.465Z,9.56
2023-03-29T23:12:24.148Z,9.71
2023-03-29T23:14:53.162Z,9.73
2023-03-29T23:17:19.700Z,9.75
2023-03-29T23:19:46.568Z,9.75
2023-03-29T23:22:13.572Z,9.77
2023-03-29T23:24:40.240Z,9.83
2023-03-29T23:27:07.714Z,9.79
2023-03-29T23:29:34.524Z,9.83
2023-03-29T23:32:01.016Z,9.82
2023-03-29T23:34:28.100Z,9.79
2023-03-29T23:36:54.660Z,9.75
2023-03-29T23:39:21.124Z,9.77
2023-03-29T23:41:47.749Z,9.74
2023-03-29T23:44:14.174Z,9.67
2023-03-29T23:46:41.876Z,9.65
2023-03-29T23:49:09.868Z,9.58
2023-03-29T23:51:39.221Z,9.65
2023-03-29T23:54:06.245Z,9.69
2023-03-29T23:56:32.759Z,9.73
2023-03-29T23:58:59.285Z,9.71
